Time;durP1;ratioP1;P1;durP2;ratioP2;P2;SDS_P1;SDS_P2;PMS_P1;PMS_P2;Temp;Humidity;BMP_temperature;BMP_pressure;BME280_temperature;BME280_humidity;BME280_pressure;Samples;Min_cycle;Max_cycle;Signal;HPM_P1;HPM_P2
2021/03/16 00:02:20;;;;;;;3.30;1.10;;;;;;;25.31;29.81;96712.97;4984525;28;20498;-32
2021/03/16 00:04:46;;;;;;;2.60;1.02;;;;;;;25.31;29.77;96723.44;4980227;28;20030;-31
2021/03/16 00:07:11;;;;;;;5.25;1.20;;;;;;;25.31;29.70;96726.06;4974998;28;20026;-32
2021/03/16 00:09:36;;;;;;;2.63;1.08;;;;;;;25.31;29.60;96729.56;4976609;28;20034;-31
2021/03/16 00:12:02;;;;;;;6.60;1.20;;;;;;;25.30;29.51;96730.50;4976531;28;20025;-31
2021/03/16 00:14:27;;;;;;;2.30;1.10;;;;;;;25.30;29.56;96735.75;4980647;28;20701;-34
2021/03/16 00:16:53;;;;;;;2.10;1.20;;;;;;;25.30;29.42;96740.13;4977065;28;20049;-32
2021/03/16 00:19:19;;;;;;;3.75;1.38;;;;;;;25.30;29.59;96742.75;4980962;28;20458;-31
2021/03/16 00:21:45;;;;;;;1.65;0.90;;;;;;;25.29;29.56;96736.63;4945678;28;20026;-32
2021/03/16 00:24:10;;;;;;;6.25;1.02;;;;;;;25.30;29.68;96745.38;4976264;28;20042;-31
2021/03/16 00:26:35;;;;;;;2.60;1.00;;;;;;;25.29;29.38;96749.75;4984969;28;20031;-32
2021/03/16 00:29:01;;;;;;;6.72;1.15;;;;;;;25.29;29.25;96744.50;4974908;28;20034;-32
2021/03/16 00:31:26;;;;;;;1.90;0.88;;;;;;;25.30;29.32;96750.63;4971967;28;20043;-30
2021/03/16 00:33:52;;;;;;;2.47;0.90;;;;;;;25.29;29.44;96752.38;4975084;28;20113;-31
2021/03/16 00:36:17;;;;;;;2.85;1.00;;;;;;;25.29;29.48;96744.50;4983842;28;20494;-29
2021/03/16 00:38:42;;;;;;;3.00;1.10;;;;;;;25.29;29.51;96747.13;4979755;28;20562;-33
2021/03/16 00:41:08;;;;;;;3.22;1.05;;;;;;;25.29;29.52;96744.50;4977336;28;20561;-32
2021/03/16 00:43:33;;;;;;;3.20;1.10;;;;;;;25.30;29.54;96748.84;4977290;28;20022;-31
2021/03/16 00:45:59;;;;;;;2.00;1.10;;;;;;;25.30;29.53;96743.59;4980661;28;20034;-32
2021/03/16 00:48:24;;;;;;;1.70;0.90;;;;;;;25.29;29.39;96747.13;4978937;28;22012;-32
2021/03/16 00:50:50;;;;;;;3.10;0.80;;;;;;;25.29;29.37;96756.78;4980828;28;20108;-31
2021/03/16 00:53:15;;;;;;;2.95;1.20;;;;;;;25.29;29.54;96762.03;4968557;28;20065;-32
2021/03/16 00:55:40;;;;;;;5.55;1.65;;;;;;;25.27;28.53;96772.59;4969860;28;20422;-31
2021/03/16 00:58:06;;;;;;;2.60;1.05;;;;;;;25.27;28.85;96779.63;4975045;28;20458;-29
2021/03/16 01:00:31;;;;;;;6.20;0.98;;;;;;;25.25;29.04;96778.84;4970160;28;20042;-32
2021/03/16 01:02:57;;;;;;;9.40;0.95;;;;;;;25.24;29.14;96780.63;4969417;28;20218;-32
2021/03/16 01:05:22;;;;;;;3.85;0.98;;;;;;;25.24;29.10;96775.38;4982913;28;20462;-32
2021/03/16 01:07:48;;;;;;;4.15;1.15;;;;;;;25.24;29.04;96778.00;4984288;28;20030;-31
2021/03/16 01:10:21;;;;;;;3.85;0.90;;;;;;;25.24;29.10;96770.13;4980193;28;20038;-31
2021/03/16 01:12:47;;;;;;;5.93;1.00;;;;;;;25.23;29.11;96778.94;4978755;28;20527;-32
2021/03/16 01:15:13;;;;;;;1.33;0.60;;;;;;;25.24;29.27;96785.03;4971250;28;20034;-33
2021/03/16 01:17:38;;;;;;;1.50;0.70;;;;;;;25.24;29.29;96785.03;4967133;28;20058;-33
2021/03/16 01:20:15;;;;;;;2.03;0.80;;;;;;;25.23;29.31;96786.81;4948279;28;20757;-31
2021/03/16 01:22:41;;;;;;;3.88;0.90;;;;;;;25.23;29.41;96781.56;4974664;28;20027;-32
2021/03/16 01:25:07;;;;;;;1.95;0.73;;;;;;;25.23;29.43;96784.19;4977143;28;20430;-32
2021/03/16 01:27:32;;;;;;;1.13;0.60;;;;;;;25.23;29.42;96784.19;4981231;28;20045;-30
2021/03/16 01:29:57;;;;;;;2.33;0.98;;;;;;;25.23;29.31;96789.41;4986259;28;20042;-32
2021/03/16 01:32:23;;;;;;;1.75;0.80;;;;;;;25.24;29.37;96792.91;4978297;28;20031;-31
2021/03/16 01:34:48;;;;;;;1.88;0.60;;;;;;;25.24;29.52;96791.13;4970755;28;20049;-31
2021/03/16 01:37:14;;;;;;;3.40;0.80;;;;;;;25.23;29.46;96794.66;4967510;28;20030;-31
2021/03/16 01:39:39;;;;;;;1.10;0.70;;;;;;;25.24;29.50;96787.66;4971213;28;20699;-32
2021/03/16 01:42:05;;;;;;;2.40;0.80;;;;;;;25.24;29.32;96790.28;4972747;28;20046;-30
2021/03/16 01:44:30;;;;;;;2.25;1.00;;;;;;;25.22;29.66;96795.59;4965752;28;20023;-32
2021/03/16 01:46:55;;;;;;;3.53;0.90;;;;;;;25.24;29.37;96791.13;4946725;28;20042;-34
2021/03/16 01:49:21;;;;;;;2.35;0.90;;;;;;;25.23;29.27;96793.81;4965025;28;20664;-31
2021/03/16 01:51:46;;;;;;;2.33;0.82;;;;;;;25.24;29.47;96804.22;4997389;28;20021;-31
2021/03/16 01:54:12;;;;;;;2.10;0.73;;;;;;;25.23;29.58;96793.81;4965508;28;20069;-31
2021/03/16 01:56:38;;;;;;;1.80;0.73;;;;;;;25.23;29.34;96794.66;4978069;28;20041;-31
2021/03/16 01:59:03;;;;;;;3.55;1.17;;;;;;;25.23;29.48;96788.56;4992691;28;20034;-32
2021/03/16 02:01:29;;;;;;;1.45;0.68;;;;;;;25.23;29.41;96789.41;4979473;28;20205;-33
2021/03/16 02:03:54;;;;;;;2.15;0.65;;;;;;;25.22;29.39;96792.97;4958968;28;20038;-31
2021/03/16 02:06:29;;;;;;;1.52;0.63;;;;;;;25.23;29.39;96796.44;4977567;28;20098;-37
2021/03/16 02:08:59;;;;;;;1.88;1.00;;;;;;;25.23;29.53;96799.91;4967410;28;20304;-32
2021/03/16 02:11:47;;;;;;;2.95;0.70;;;;;;;25.21;29.40;96786.03;4972587;28;20527;-32
2021/03/16 02:14:33;;;;;;;1.38;0.70;;;;;;;25.22;29.58;96792.97;4978538;28;20057;-31
2021/03/16 02:17:10;;;;;;;2.25;1.02;;;;;;;25.20;29.39;96789.56;4969925;28;20540;-30
2021/03/16 02:20:07;;;;;;;1.25;0.60;;;;;;;25.20;29.58;96794.81;4976097;28;20030;-33
2021/03/16 02:22:33;;;;;;;2.28;0.77;;;;;;;25.20;29.42;96792.19;4978235;28;20021;-32
2021/03/16 02:25:18;;;;;;;1.77;0.70;;;;;;;25.18;29.60;96802.75;4946913;28;20018;-31
2021/03/16 02:27:56;;;;;;;2.67;0.82;;;;;;;25.19;29.63;96801.00;4946084;28;20044;-32
2021/03/16 02:30:21;;;;;;;1.48;0.68;;;;;;;25.19;29.57;96801.00;4994898;28;20121;-31
2021/03/16 02:32:47;;;;;;;1.65;0.70;;;;;;;25.19;29.51;96803.63;4945956;28;20026;-30
2021/03/16 02:35:14;;;;;;;2.20;0.75;;;;;;;25.18;29.46;96807.16;4971948;28;20035;-31
2021/03/16 02:37:39;;;;;;;1.55;0.60;;;;;;;25.19;29.44;96806.25;4957002;28;20026;-31
2021/03/16 02:40:05;;;;;;;1.52;0.90;;;;;;;25.20;29.33;96807.09;4950492;28;20034;-32
2021/03/16 02:42:31;;;;;;;1.80;0.50;;;;;;;25.18;29.38;96808.00;4961017;28;20147;-32
2021/03/16 02:44:56;;;;;;;2.65;0.77;;;;;;;25.18;29.24;96807.16;4958881;28;20088;-32
2021/03/16 02:47:22;;;;;;;1.23;0.70;;;;;;;25.19;29.37;96803.63;4981401;28;20042;-33
2021/03/16 02:49:47;;;;;;;2.30;0.73;;;;;;;25.16;29.58;96812.50;4982017;28;20392;-31
2021/03/16 02:52:12;;;;;;;2.75;0.63;;;;;;;25.17;29.24;96811.56;4984299;28;20046;-29
2021/03/16 02:54:38;;;;;;;2.75;0.80;;;;;;;25.18;29.18;96812.41;4981238;28;20030;-32
2021/03/16 02:57:04;;;;;;;0.98;0.50;;;;;;;25.18;29.13;96817.66;4997978;28;20453;-31
2021/03/16 02:59:29;;;;;;;3.28;0.73;;;;;;;25.18;29.17;96822.91;4978805;28;20453;-32
2021/03/16 03:01:55;;;;;;;2.78;0.60;;;;;;;25.18;29.25;96817.66;4984886;28;20041;-32
2021/03/16 03:04:21;;;;;;;1.67;0.63;;;;;;;25.18;29.39;96822.91;4988549;28;20034;-32
2021/03/16 03:06:46;;;;;;;0.80;0.38;;;;;;;25.17;29.46;96816.81;4988882;28;20057;-33
2021/03/16 03:09:12;;;;;;;10.95;1.25;;;;;;;25.17;28.72;96816.81;4981706;28;20030;-32
2021/03/16 03:11:38;;;;;;;5.45;1.15;;;;;;;25.16;28.90;96824.75;5005961;28;20108;-30
2021/03/16 03:14:04;;;;;;;2.63;1.02;;;;;;;25.14;29.24;96826.59;5004618;28;20049;-32
2021/03/16 03:16:29;;;;;;;1.05;0.57;;;;;;;25.15;29.31;96818.66;4992958;28;20045;-32
2021/03/16 03:18:55;;;;;;;3.55;0.93;;;;;;;25.14;29.26;96822.19;4981863;28;20034;-32
2021/03/16 03:21:26;;;;;;;2.40;0.93;;;;;;;25.13;29.34;96825.75;4966500;28;20039;-36
2021/03/16 03:23:56;;;;;;;1.03;0.50;;;;;;;25.14;29.28;96826.59;4969220;28;20034;-30
2021/03/16 03:26:25;;;;;;;7.15;1.00;;;;;;;25.14;29.22;96816.13;4989647;28;20022;-31
2021/03/16 03:28:51;;;;;;;2.83;0.70;;;;;;;25.14;29.52;96826.59;4947987;28;20022;-31
2021/03/16 03:31:16;;;;;;;4.13;0.70;;;;;;;25.14;29.40;96823.97;4965479;28;20415;-32
2021/03/16 03:33:42;;;;;;;2.15;0.70;;;;;;;25.14;29.58;96826.59;4964828;28;20030;-31
2021/03/16 03:36:07;;;;;;;1.70;0.57;;;;;;;25.14;29.29;96832.69;4970326;28;20049;-31
2021/03/16 03:38:33;;;;;;;3.53;0.55;;;;;;;25.15;29.14;96838.78;4968360;28;20041;-30
2021/03/16 03:40:59;;;;;;;0.73;0.45;;;;;;;25.14;29.13;96837.09;4967937;28;20073;-32
2021/03/16 03:43:24;;;;;;;3.20;0.98;;;;;;;25.14;29.26;96837.09;4949222;28;20066;-31
2021/03/16 03:45:50;;;;;;;2.47;0.90;;;;;;;25.13;29.25;96831.00;4950715;28;20035;-32
2021/03/16 03:48:16;;;;;;;1.80;0.80;;;;;;;25.15;29.18;96844.03;4972271;28;20637;-32
2021/03/16 03:50:41;;;;;;;2.95;0.70;;;;;;;25.15;29.18;96838.78;4958266;28;20026;-30
2021/03/16 03:53:08;;;;;;;4.78;0.88;;;;;;;25.13;29.34;96838.84;4985495;28;20847;-31
2021/03/16 03:55:34;;;;;;;3.17;0.60;;;;;;;25.14;29.27;96842.34;4985184;28;20030;-33
2021/03/16 03:57:59;;;;;;;4.68;1.00;;;;;;;25.13;29.16;96843.28;4979015;28;20037;-31
2021/03/16 04:00:24;;;;;;;4.13;0.70;;;;;;;25.14;29.08;96839.72;4949379;28;21943;-31
2021/03/16 04:02:50;;;;;;;4.07;0.90;;;;;;;25.14;29.21;96847.59;4987434;28;20088;-33
2021/03/16 04:05:15;;;;;;;2.78;0.82;;;;;;;25.15;29.30;96849.28;4961070;28;20054;-32
2021/03/16 04:07:41;;;;;;;1.33;0.60;;;;;;;25.12;29.18;96855.53;4957169;28;20027;-30
2021/03/16 04:10:08;;;;;;;2.85;0.70;;;;;;;25.13;29.17;96851.97;4952666;28;20026;-31
2021/03/16 04:12:37;;;;;;;2.00;0.80;;;;;;;25.13;29.21;96857.22;4972881;28;20018;-32
2021/03/16 04:15:07;;;;;;;1.77;0.77;;;;;;;25.10;29.16;96861.75;4960701;28;20725;-32
2021/03/16 04:17:33;;;;;;;3.47;0.73;;;;;;;25.13;29.14;96859.00;4996160;28;20578;-32
2021/03/16 04:19:58;;;;;;;2.30;0.57;;;;;;;25.12;29.31;96865.16;4959717;28;20026;-34
2021/03/16 04:22:24;;;;;;;3.55;0.70;;;;;;;25.12;29.17;96870.41;4995611;28;20041;-32
2021/03/16 04:24:53;;;;;;;2.30;0.77;;;;;;;25.12;29.20;96875.63;4967701;28;20045;-32
2021/03/16 04:27:19;;;;;;;2.83;0.80;;;;;;;25.10;29.28;96875.75;4995678;28;20093;-31
2021/03/16 04:29:44;;;;;;;3.97;0.95;;;;;;;25.11;29.00;96873.94;5001797;28;20026;-33
2021/03/16 04:32:10;;;;;;;1.55;0.88;;;;;;;25.08;29.03;96867.09;5000077;28;20034;-33
2021/03/16 04:34:35;;;;;;;3.90;0.90;;;;;;;25.08;28.96;96874.94;5002958;28;20490;-33
2021/03/16 04:37:00;;;;;;;1.67;0.70;;;;;;;25.08;29.22;96874.09;5001782;28;20033;-31
2021/03/16 04:39:26;;;;;;;4.15;0.80;;;;;;;25.08;29.01;96880.19;4996667;28;20061;-33
2021/03/16 04:41:51;;;;;;;3.95;1.00;;;;;;;25.09;29.07;96878.44;4998272;28;20034;-31
2021/03/16 04:44:17;;;;;;;3.00;1.05;;;;;;;25.10;29.20;96883.59;5003541;28;20030;-32
2021/03/16 04:46:42;;;;;;;1.98;0.90;;;;;;;25.07;29.14;96881.13;4999932;28;20033;-32
2021/03/16 04:49:08;;;;;;;1.92;0.80;;;;;;;25.08;28.98;96879.34;5003777;28;20103;-31
2021/03/16 04:51:33;;;;;;;3.55;0.90;;;;;;;25.08;28.90;96879.34;5006178;28;20073;-32
2021/03/16 04:53:58;;;;;;;3.90;0.90;;;;;;;25.07;28.93;96893.38;5005545;28;20034;-31
2021/03/16 04:56:24;;;;;;;3.45;0.93;;;;;;;25.07;29.32;96893.38;5000454;28;20018;-32
2021/03/16 04:58:49;;;;;;;3.67;0.90;;;;;;;25.06;29.18;96892.53;5003241;28;20033;-32
2021/03/16 05:01:16;;;;;;;2.60;0.80;;;;;;;25.06;29.22;96892.53;4994624;28;20034;-33
2021/03/16 05:03:41;;;;;;;3.08;0.68;;;;;;;25.06;29.02;96887.31;4971729;28;20414;-31
2021/03/16 05:06:07;;;;;;;2.97;0.70;;;;;;;25.05;29.03;96904.78;4997169;28;20034;-31
2021/03/16 05:08:32;;;;;;;3.17;0.75;;;;;;;25.05;29.16;96902.16;5005518;28;20040;-31
2021/03/16 05:10:57;;;;;;;2.25;0.55;;;;;;;25.05;29.18;96904.78;5001761;28;20026;-32
2021/03/16 05:13:23;;;;;;;2.78;0.73;;;;;;;25.04;29.23;96900.47;5004469;28;20018;-32
2021/03/16 05:15:48;;;;;;;2.00;0.70;;;;;;;25.04;29.21;96905.72;4997909;28;20046;-33
2021/03/16 05:18:14;;;;;;;1.52;0.70;;;;;;;25.05;29.04;96912.66;4998712;28;20568;-31
2021/03/16 05:20:39;;;;;;;1.42;0.70;;;;;;;25.04;29.11;96910.09;4984064;28;20033;-31
2021/03/16 05:23:05;;;;;;;1.38;0.60;;;;;;;25.04;28.91;96910.97;4992253;28;20029;-33
2021/03/16 05:25:31;;;;;;;2.80;0.77;;;;;;;25.04;29.16;96913.59;5000068;28;20048;-32
2021/03/16 05:27:56;;;;;;;2.22;0.80;;;;;;;25.04;28.94;96918.84;4995949;28;20034;-31
2021/03/16 05:30:22;;;;;;;2.05;0.70;;;;;;;25.04;28.80;96921.47;4999487;28;20042;-32
2021/03/16 05:32:56;;;;;;;2.00;0.95;;;;;;;25.04;29.16;96926.69;5000221;28;20386;-33
2021/03/16 05:35:22;;;;;;;1.00;0.50;;;;;;;25.04;29.09;96926.69;5003001;28;20370;-32
2021/03/16 05:37:48;;;;;;;2.25;0.70;;;;;;;25.04;29.02;96937.19;5004043;28;20037;-31
2021/03/16 05:40:14;;;;;;;1.48;0.80;;;;;;;25.04;29.03;96931.94;5002186;28;20626;-31
2021/03/16 05:42:39;;;;;;;1.63;0.70;;;;;;;25.04;29.03;96937.19;4996539;28;20042;-32
2021/03/16 05:45:06;;;;;;;1.90;0.75;;;;;;;25.04;29.14;96938.94;4983759;28;20022;-32
2021/03/16 05:47:31;;;;;;;1.92;0.60;;;;;;;25.03;29.16;96945.97;4986019;28;20034;-32
2021/03/16 05:49:57;;;;;;;3.72;1.17;;;;;;;25.03;29.09;96945.97;4952692;28;20038;-32
2021/03/16 05:52:22;;;;;;;2.15;1.00;;;;;;;25.02;29.13;96960.00;4983326;28;20084;-35
2021/03/16 05:54:48;;;;;;;1.05;0.55;;;;;;;25.02;29.06;96960.00;4983277;28;20061;-32
2021/03/16 05:57:13;;;;;;;2.42;0.60;;;;;;;25.03;29.01;96963.47;5003011;28;20030;-31
2021/03/16 05:59:38;;;;;;;1.42;0.73;;;;;;;25.02;29.28;96965.22;4994868;28;20053;-32
2021/03/16 06:02:04;;;;;;;2.35;0.70;;;;;;;25.02;29.08;96975.72;4997831;28;20659;-32
2021/03/16 06:04:29;;;;;;;1.55;0.40;;;;;;;25.01;29.14;96971.41;5000592;28;20041;-32
2021/03/16 06:06:57;;;;;;;2.05;0.60;;;;;;;25.01;29.29;96974.03;4994654;28;20030;-31
2021/03/16 06:09:23;;;;;;;1.52;0.68;;;;;;;25.01;29.27;96974.03;5001463;28;20037;-32
2021/03/16 06:11:49;;;;;;;2.92;0.80;;;;;;;25.02;29.15;96978.34;4993954;28;20033;-33
2021/03/16 06:14:14;;;;;;;1.83;1.00;;;;;;;25.02;29.06;96980.97;5006435;28;20708;-32
2021/03/16 06:16:39;;;;;;;3.58;0.60;;;;;;;25.03;29.08;96985.31;4992191;28;20034;-31
2021/03/16 06:19:05;;;;;;;1.60;0.60;;;;;;;25.03;29.02;96984.44;4985131;28;20075;-31
2021/03/16 06:21:30;;;;;;;2.75;0.77;;;;;;;25.03;29.26;96993.19;4969416;28;20030;-31
2021/03/16 06:24:00;;;;;;;3.35;0.65;;;;;;;25.03;29.03;96993.19;4996826;28;20030;-30
2021/03/16 06:26:26;;;;;;;2.92;0.65;;;;;;;25.03;29.04;96992.31;5005211;28;20041;-32
2021/03/16 06:28:52;;;;;;;2.72;0.95;;;;;;;25.03;29.10;97000.19;4998452;28;20052;-32
2021/03/16 06:31:24;;;;;;;1.33;0.70;;;;;;;25.00;29.18;96995.94;5001182;28;20030;-33
2021/03/16 06:33:49;;;;;;;2.67;0.60;;;;;;;25.04;29.15;97004.50;4999565;28;20672;-32
2021/03/16 06:36:14;;;;;;;1.23;0.50;;;;;;;25.02;29.13;97007.19;4997592;28;20029;-31
2021/03/16 06:38:42;;;;;;;1.20;0.65;;;;;;;25.03;28.97;97016.78;4995470;28;20083;-32
2021/03/16 06:41:10;;;;;;;1.38;0.52;;;;;;;25.04;29.05;97014.97;4974658;28;20142;-30
2021/03/16 06:43:35;;;;;;;2.25;0.77;;;;;;;25.02;28.98;97017.66;4988348;28;20119;-31
2021/03/16 06:46:01;;;;;;;1.67;0.70;;;;;;;25.03;29.08;97019.41;4996327;28;20041;-32
2021/03/16 06:48:32;;;;;;;1.70;0.82;;;;;;;25.02;29.05;97017.66;4996401;28;20667;-32
2021/03/16 06:51:15;;;;;;;1.90;0.70;;;;;;;25.03;29.29;97027.25;4978597;28;20049;-31
2021/03/16 06:53:41;;;;;;;2.40;0.93;;;;;;;25.04;29.04;97028.09;5003132;28;20520;-31
2021/03/16 06:56:06;;;;;;;2.47;0.82;;;;;;;25.03;29.24;97015.91;4987258;28;20038;-31
2021/03/16 06:58:33;;;;;;;1.52;0.50;;;;;;;25.03;29.09;97029.88;4997951;28;20026;-30
2021/03/16 07:01:05;;;;;;;1.35;0.60;;;;;;;25.03;29.16;97035.13;4973232;28;20034;-30
2021/03/16 07:03:31;;;;;;;2.08;0.70;;;;;;;25.03;29.36;97035.13;4980341;28;20044;-32
2021/03/16 07:06:10;;;;;;;1.02;0.60;;;;;;;25.03;29.23;97032.50;4982853;28;20045;-32
2021/03/16 07:08:36;;;;;;;1.15;0.63;;;;;;;25.04;29.17;97039.44;4980667;28;20053;-32
2021/03/16 07:11:05;;;;;;;1.30;0.70;;;;;;;25.03;29.17;97040.38;4981969;28;20031;-31
2021/03/16 07:13:31;;;;;;;1.67;0.65;;;;;;;25.05;29.19;97042.91;4978237;28;20026;-32
2021/03/16 07:15:57;;;;;;;2.17;0.70;;;;;;;25.05;29.31;97043.75;4986452;28;20477;-31
2021/03/16 07:18:22;;;;;;;0.70;0.50;;;;;;;25.04;29.09;97049.94;4978038;28;20040;-31
2021/03/16 07:20:48;;;;;;;2.33;0.73;;;;;;;25.05;28.70;97059.50;5000363;28;20052;-31
2021/03/16 07:23:13;;;;;;;1.27;0.60;;;;;;;25.06;29.21;97055.09;4968315;28;20037;-33
2021/03/16 07:25:38;;;;;;;1.58;0.63;;;;;;;25.07;29.21;97058.56;4982072;28;20034;-32
2021/03/16 07:28:04;;;;;;;4.13;1.45;;;;;;;25.07;29.23;97061.19;4998708;28;20449;-33
2021/03/16 07:30:29;;;;;;;1.52;0.70;;;;;;;25.07;29.03;97063.81;4993548;28;20062;-34
2021/03/16 07:32:55;;;;;;;2.53;0.90;;;;;;;25.05;29.10;97064.75;4969186;28;20027;-32
2021/03/16 07:35:20;;;;;;;4.82;1.10;;;;;;;25.05;29.04;97074.34;4965378;28;20114;-32
2021/03/16 07:37:46;;;;;;;2.10;0.80;;;;;;;25.06;29.09;97076.09;4947859;28;20027;-32
2021/03/16 07:40:13;;;;;;;1.70;0.70;;;;;;;25.05;28.89;97080.47;4948790;28;20738;-32
2021/03/16 07:42:38;;;;;;;1.75;0.85;;;;;;;25.07;29.16;97076.91;4971255;28;20048;-31
2021/03/16 07:45:05;;;;;;;4.65;0.70;;;;;;;25.05;29.00;97090.97;4966996;28;20475;-30
2021/03/16 07:47:36;;;;;;;2.42;0.82;;;;;;;25.07;29.12;97092.66;4974511;28;20039;-33
2021/03/16 07:50:08;;;;;;;7.55;1.35;;;;;;;25.06;28.42;97094.44;4970876;28;20038;-31
2021/03/16 07:52:44;;;;;;;2.33;0.90;;;;;;;25.07;28.53;97097.91;4972149;28;20117;-32
2021/03/16 07:55:11;;;;;;;5.47;1.35;;;;;;;25.05;28.41;97097.97;4962904;28;20025;-31
2021/03/16 07:57:37;;;;;;;21.40;2.03;;;;;;;25.05;28.64;97098.81;4984145;28;20037;-32
2021/03/16 08:00:13;;;;;;;10.80;1.02;;;;;;;25.05;28.46;97101.44;4980567;28;20033;-31
2021/03/16 08:02:38;;;;;;;3.03;0.90;;;;;;;25.05;28.29;97095.34;4976756;28;20041;-31
2021/03/16 08:05:15;;;;;;;4.40;1.20;;;;;;;25.05;28.29;97096.19;4992930;28;20030;-29
2021/03/16 08:07:40;;;;;;;2.42;1.02;;;;;;;25.07;28.09;97097.91;4997082;28;20057;-31
2021/03/16 08:10:06;;;;;;;5.82;0.93;;;;;;;25.07;28.23;97108.38;4973537;28;20064;-32
2021/03/16 08:12:32;;;;;;;6.68;1.52;;;;;;;25.07;28.35;97103.13;4981060;28;20071;-31
2021/03/16 08:15:09;;;;;;;2.53;0.82;;;;;;;25.08;28.52;97104.84;4983350;28;20053;-30
2021/03/16 08:17:35;;;;;;;3.45;0.77;;;;;;;25.08;28.39;97110.06;4996448;28;20034;-31
2021/03/16 08:20:02;;;;;;;3.03;0.77;;;;;;;25.08;28.28;97112.69;4997771;28;20057;-31
2021/03/16 08:22:28;;;;;;;1.95;0.70;;;;;;;25.08;28.38;97110.94;4997171;28;20502;-30
2021/03/16 08:25:07;;;;;;;3.47;0.82;;;;;;;25.09;28.71;97122.28;4999401;28;20030;-31
2021/03/16 08:27:33;;;;;;;2.47;0.80;;;;;;;25.10;28.77;97119.59;4996778;28;20034;-33
2021/03/16 08:29:59;;;;;;;3.25;0.88;;;;;;;25.12;28.89;97124.75;4995548;28;20038;-35
2021/03/16 08:32:24;;;;;;;1.75;0.80;;;;;;;25.12;28.70;97123.00;4998100;28;20034;-32
2021/03/16 08:34:50;;;;;;;3.88;0.90;;;;;;;25.13;28.75;97118.63;4979524;28;20770;-32
2021/03/16 08:37:22;;;;;;;5.38;1.20;;;;;;;25.13;28.85;97127.31;4995298;28;20030;-31
2021/03/16 08:39:47;;;;;;;;;;;;;;;25.13;28.92;97124.69;4995613;28;20029;-33
2021/03/16 08:42:16;;;;;;;3.90;1.13;;;;;;;25.15;28.87;97127.25;4994920;28;19983;-32
2021/03/16 08:44:41;;;;;;;1.67;0.80;;;;;;;25.14;28.60;97126.38;4995135;28;20033;-32
2021/03/16 08:47:12;;;;;;;2.25;0.88;;;;;;;25.14;28.58;97125.56;4995172;28;20048;-32
2021/03/16 08:49:44;;;;;;;3.28;1.00;;;;;;;25.15;28.88;97129.88;4993559;28;22653;-32
2021/03/16 08:52:19;;;;;;;5.30;1.20;;;;;;;25.14;28.48;97131.63;4995897;28;20536;-29
2021/03/16 08:54:44;;;;;;;3.10;1.02;;;;;;;25.15;28.56;97132.50;4995832;28;20041;-32
2021/03/16 08:57:10;;;;;;;3.75;0.93;;;;;;;25.14;28.67;97136.03;4997153;28;20029;-35
2021/03/16 08:59:37;;;;;;;4.68;0.90;;;;;;;25.13;28.48;97136.97;4996562;28;20045;-32
2021/03/16 09:02:02;;;;;;;2.17;0.88;;;;;;;25.14;28.57;97141.28;4993714;28;20097;-32
2021/03/16 09:04:28;;;;;;;2.38;1.00;;;;;;;25.15;28.86;97132.50;4979099;28;21883;-31
2021/03/16 09:06:54;;;;;;;4.07;0.80;;;;;;;25.16;28.85;97134.19;4996794;28;20053;-33
2021/03/16 09:09:26;;;;;;;2.90;0.93;;;;;;;25.16;28.95;97142.06;4998798;28;20022;-34
2021/03/16 09:11:54;;;;;;;3.45;1.13;;;;;;;25.16;28.45;97139.44;4993730;28;21313;-31
2021/03/16 09:14:20;;;;;;;3.33;1.13;;;;;;;25.16;28.17;97142.91;4979639;28;20453;-30
2021/03/16 09:16:51;;;;;;;2.70;0.90;;;;;;;25.18;28.46;97155.97;4995664;28;20048;-32
2021/03/16 09:19:18;;;;;;;4.82;1.90;;;;;;;25.07;22.46;97155.59;4995879;28;20041;-33
2021/03/16 09:21:57;;;;;;;19.73;2.50;;;;;;;24.80;20.67;97157.53;4995429;28;20029;-31
2021/03/16 09:24:28;;;;;;;11.68;2.30;;;;;;;24.59;21.59;97153.25;4998712;28;20049;-31
2021/03/16 09:26:53;;;;;;;7.05;2.20;;;;;;;24.44;22.22;97162.59;4994039;28;20103;-32
2021/03/16 09:29:19;;;;;;;8.35;2.15;;;;;;;24.35;23.00;97163.81;4992576;28;20033;-33
2021/03/16 09:31:45;;;;;;;7.65;2.30;;;;;;;24.30;23.58;97163.16;4961988;28;20048;-33
2021/03/16 09:34:12;;;;;;;5.28;2.08;;;;;;;24.27;23.99;97162.38;4980462;28;20029;-31
2021/03/16 09:36:37;;;;;;;13.75;3.28;;;;;;;24.29;24.49;97164.09;4999340;28;20026;-33
2021/03/16 09:39:03;;;;;;;8.70;2.30;;;;;;;24.29;24.73;97156.22;4990665;28;20128;-31
2021/03/16 09:41:28;;;;;;;4.72;1.90;;;;;;;24.33;24.93;97165.66;4998098;28;20081;-31
2021/03/16 09:43:54;;;;;;;7.78;1.98;;;;;;;24.32;25.42;97167.41;4988390;28;20041;-32
2021/03/16 09:46:19;;;;;;;6.68;1.90;;;;;;;24.39;25.53;97162.78;4999504;28;20461;-30
2021/03/16 09:48:49;;;;;;;13.63;2.22;;;;;;;24.40;24.56;97162.72;4992830;28;20045;-32
2021/03/16 09:51:16;;;;;;;15.20;2.20;;;;;;;24.44;25.37;97167.84;4992899;28;20026;-32
2021/03/16 09:53:52;;;;;;;13.85;2.90;;;;;;;24.46;25.62;97168.63;4994131;28;20102;-31
2021/03/16 09:56:18;;;;;;;13.38;3.72;;;;;;;24.50;26.05;97168.44;5001585;28;20672;-32
2021/03/16 09:58:47;;;;;;;19.13;3.85;;;;;;;24.52;26.33;97171.00;4990961;28;20087;-31
2021/03/16 10:01:13;;;;;;;16.30;3.45;;;;;;;24.56;26.28;97167.28;4985765;28;20120;-34
2021/03/16 10:03:39;;;;;;;15.60;3.88;;;;;;;24.60;26.33;97160.19;5000255;28;20022;-33
2021/03/16 10:06:05;;;;;;;23.48;4.15;;;;;;;24.63;26.35;97165.28;4999291;28;20103;-32
2021/03/16 10:08:31;;;;;;;14.98;3.47;;;;;;;24.65;26.67;97155.59;5002974;28;20137;-35
2021/03/16 10:10:56;;;;;;;20.30;3.70;;;;;;;24.69;26.62;97161.53;5001442;28;20034;-33
2021/03/16 10:13:52;;;;;;;16.30;4.20;;;;;;;24.71;26.74;97160.56;5005940;28;20091;-32
2021/03/16 10:16:18;;;;;;;18.17;3.65;;;;;;;24.74;26.83;97164.81;5003214;28;20446;-32
2021/03/16 10:18:46;;;;;;;11.88;3.55;;;;;;;24.76;26.70;97166.47;4987419;28;20033;-32
2021/03/16 10:21:11;;;;;;;13.68;3.60;;;;;;;24.78;26.68;97162.00;4999521;28;20032;-32
2021/03/16 10:23:36;;;;;;;12.18;3.28;;;;;;;24.80;26.86;97175.88;4987819;28;20214;-33
2021/03/16 10:26:04;;;;;;;21.83;3.50;;;;;;;24.83;26.88;97174.06;5005581;28;20045;-30
2021/03/16 10:28:48;;;;;;;9.55;3.00;;;;;;;24.84;26.88;97160.94;5004391;28;20143;-35
2021/03/16 10:31:19;;;;;;;9.82;3.00;;;;;;;24.87;26.97;97159.94;5003999;28;20033;-32
2021/03/16 10:33:46;;;;;;;12.30;3.50;;;;;;;24.89;27.20;97163.34;5005109;28;20029;-30
2021/03/16 10:36:11;;;;;;;8.05;2.75;;;;;;;24.90;27.18;97165.91;4987712;28;20030;-31
2021/03/16 10:38:37;;;;;;;7.93;2.72;;;;;;;24.92;27.19;97152.72;5005644;28;20057;-32
2021/03/16 10:41:03;;;;;;;7.53;2.63;;;;;;;24.94;27.33;97156.13;5004486;28;20680;-32
2021/03/16 10:43:28;;;;;;;12.40;3.03;;;;;;;24.96;27.23;97148.19;4991538;28;20037;-31
2021/03/16 10:45:54;;;;;;;6.88;2.70;;;;;;;24.98;27.23;97152.44;4999911;28;20104;-33
2021/03/16 10:48:21;;;;;;;6.65;2.42;;;;;;;24.99;27.12;97150.69;5002952;28;20498;-31
2021/03/16 10:50:46;;;;;;;7.93;2.60;;;;;;;25.01;27.34;97162.81;5006119;28;20479;-32
2021/03/16 10:53:13;;;;;;;6.22;2.42;;;;;;;25.02;27.25;97154.00;5006653;28;20041;-32
2021/03/16 10:55:39;;;;;;;9.40;2.50;;;;;;;25.05;27.36;97160.88;4990282;28;20032;-33
2021/03/16 10:58:04;;;;;;;6.13;2.15;;;;;;;25.04;27.50;97152.19;5001959;28;20030;-32
2021/03/16 11:00:30;;;;;;;8.80;2.60;;;;;;;25.07;27.34;97164.31;4976215;28;20053;-31
2021/03/16 11:02:55;;;;;;;7.13;2.35;;;;;;;25.08;27.52;97160.75;5002080;28;20112;-31
2021/03/16 11:05:20;;;;;;;10.27;2.50;;;;;;;25.10;26.72;97171.19;4985244;28;20486;-32
2021/03/16 11:07:46;;;;;;;5.68;1.98;;;;;;;25.11;27.13;97157.16;5001830;28;20041;-30
2021/03/16 11:10:12;;;;;;;9.93;2.17;;;;;;;25.12;27.33;97164.97;5001712;28;20022;-31
2021/03/16 11:12:38;;;;;;;8.20;1.70;;;;;;;25.14;27.13;97167.50;5007419;28;20060;-33
2021/03/16 11:15:04;;;;;;;9.20;1.80;;;;;;;25.15;27.11;97164.81;5001975;28;20033;-31
2021/03/16 11:17:29;;;;;;;5.05;1.83;;;;;;;25.16;27.19;97166.53;5004579;28;20041;-32
2021/03/16 11:19:54;;;;;;;6.47;1.88;;;;;;;25.18;27.37;97169.09;4985244;28;20029;-31
2021/03/16 11:22:20;;;;;;;7.38;2.28;;;;;;;25.18;27.40;97172.53;5001355;28;20026;-32
2021/03/16 11:24:48;;;;;;;4.97;2.08;;;;;;;25.19;27.79;97170.78;5005298;28;20056;-32
2021/03/16 11:27:13;;;;;;;7.45;2.13;;;;;;;25.20;27.68;97172.47;5000378;28;20429;-33
2021/03/16 11:29:38;;;;;;;4.25;1.80;;;;;;;25.21;27.78;97171.56;4987886;28;20038;-33
2021/03/16 11:32:04;;;;;;;5.22;1.70;;;;;;;25.22;28.06;97175.91;5002954;28;20030;-32